Time;durP1;ratioP1;P1;durP2;ratioP2;P2;SDS_P1;SDS_P2;PMS_P1;PMS_P2;Temp;Humidity;BMP_temperature;BMP_pressure;BME280_temperature;BME280_humidity;BME280_pressure;Samples;Min_cycle;Max_cycle;Signal;HPM_P1;HPM_P2
2023/01/26 00:01:23;;;;;;;;;44.75;39.25;;;;;;;;5105844;27;61799;-72
2023/01/26 00:03:49;;;;;;;;;45.75;41.25;;;;;;;;5103319;27;61902;-72
2023/01/26 00:06:16;;;;;;;;;58.67;40.67;;;;;;;;5105293;27;61857;-73
2023/01/26 00:08:42;;;;;;;;;55.50;40.00;;;;;;;;5104691;27;61860;-72
2023/01/26 00:11:09;;;;;;;;;56.00;35.25;;;;;;;;5104978;27;61913;-72
2023/01/26 00:13:34;;;;;;;;;40.50;35.75;;;;;;;;5104875;27;61920;-73
2023/01/26 00:16:00;;;;;;;;;67.67;44.67;;;;;;;;5103640;27;62039;-72
2023/01/26 00:18:25;;;;;;;;;54.00;43.25;;;;;;;;5105531;27;61857;-73
2023/01/26 00:20:54;;;;;;;;;54.75;38.75;;;;;;;;5105110;27;61699;-72
2023/01/26 00:23:19;;;;;;;;;55.67;39.33;;;;;;;;5104311;27;61691;-73
2023/01/26 00:25:45;;;;;;;;;62.50;42.50;;;;;;;;5104675;27;61780;-72
2023/01/26 00:28:10;;;;;;;;;50.75;40.00;;;;;;;;5105044;27;61960;-72
2023/01/26 00:30:35;;;;;;;;;48.75;41.75;;;;;;;;5105340;27;61702;-72
2023/01/26 00:33:00;;;;;;;;;59.00;41.67;;;;;;;;5103019;27;63837;-72
2023/01/26 00:35:26;;;;;;;;;60.67;40.33;;;;;;;;5102779;27;61738;-72
2023/01/26 00:37:51;;;;;;;;;48.67;37.67;;;;;;;;5102948;27;62052;-73
2023/01/26 00:40:16;;;;;;;;;62.67;40.67;;;;;;;;5104559;27;61679;-72
2023/01/26 00:42:41;;;;;;;;;60.00;42.25;;;;;;;;5104257;27;62990;-72
2023/01/26 00:45:07;;;;;;;;;58.00;41.67;;;;;;;;5103478;27;61844;-72
2023/01/26 00:47:32;;;;;;;;;69.67;47.00;;;;;;;;5103230;27;61826;-72
2023/01/26 00:49:57;;;;;;;;;57.00;43.67;;;;;;;;5104989;27;61621;-72
2023/01/26 00:52:23;;;;;;;;;57.67;41.67;;;;;;;;5104042;27;62790;-72
2023/01/26 00:54:48;;;;;;;;;70.33;45.67;;;;;;;;5103904;27;61911;-72
2023/01/26 00:57:13;;;;;;;;;64.33;44.33;;;;;;;;5104556;27;61701;-72
2023/01/26 00:59:38;;;;;;;;;46.75;40.25;;;;;;;;5104750;27;61670;-72
2023/01/26 01:02:04;;;;;;;;;65.00;43.67;;;;;;;;5103994;27;62614;-72
2023/01/26 01:04:29;;;;;;;;;58.33;41.33;;;;;;;;5104481;27;61727;-72
2023/01/26 01:06:55;;;;;;;;;60.75;41.00;;;;;;;;5104410;27;61853;-72
2023/01/26 01:09:21;;;;;;;;;70.67;48.67;;;;;;;;5102170;27;62144;-72
2023/01/26 01:11:46;;;;;;;;;49.67;41.00;;;;;;;;5102167;27;62229;-72
2023/01/26 01:14:12;;;;;;;;;62.33;43.67;;;;;;;;5102800;27;61832;-72
2023/01/26 01:16:38;;;;;;;;;54.33;41.67;;;;;;;;5104233;27;61778;-72
2023/01/26 01:19:03;;;;;;;;;61.00;42.00;;;;;;;;5103133;27;61832;-72
2023/01/26 01:21:30;;;;;;;;;61.33;41.00;;;;;;;;5103686;27;61707;-72
2023/01/26 01:23:56;;;;;;;;;61.00;44.33;;;;;;;;5103408;27;61890;-72
2023/01/26 01:26:21;;;;;;;;;58.00;43.25;;;;;;;;5102892;27;62232;-72
2023/01/26 01:28:46;;;;;;;;;59.67;45.33;;;;;;;;5104407;27;61992;-72
2023/01/26 01:31:14;;;;;;;;;63.67;45.33;;;;;;;;5103380;27;61765;-72
2023/01/26 01:33:39;;;;;;;;;54.00;40.00;;;;;;;;5102874;27;61785;-72
2023/01/26 01:36:06;;;;;;;;;60.33;39.33;;;;;;;;5103498;27;61863;-73
2023/01/26 01:38:31;;;;;;;;;64.00;43.00;;;;;;;;5102052;27;61972;-72
2023/01/26 01:40:56;;;;;;;;;64.33;47.33;;;;;;;;5103022;27;62660;-72
2023/01/26 01:43:23;;;;;;;;;56.67;44.00;;;;;;;;5102698;27;61918;-72
2023/01/26 01:45:49;;;;;;;;;52.50;41.25;;;;;;;;5104001;27;61830;-72
2023/01/26 01:48:37;;;;;;;;;59.33;45.00;;;;;;;;5103734;27;62073;-72
2023/01/26 01:51:04;;;;;;;;;62.67;44.00;;;;;;;;5099399;27;62901;-73
2023/01/26 01:53:33;;;;;;;;;61.00;44.00;;;;;;;;5102231;27;62153;-72
2023/01/26 01:56:01;;;;;;;;;69.50;42.75;;;;;;;;5103558;27;61897;-72
2023/01/26 01:58:28;;;;;;;;;68.00;46.00;;;;;;;;5102305;27;61710;-72
2023/01/26 02:00:53;;;;;;;;;52.67;41.00;;;;;;;;5102998;27;61850;-73
2023/01/26 02:03:20;;;;;;;;;47.00;35.75;;;;;;;;5102045;27;61970;-72
2023/01/26 02:05:45;;;;;;;;;47.33;40.00;;;;;;;;5103336;27;61838;-72
2023/01/26 02:08:12;;;;;;;;;55.00;42.00;;;;;;;;5102364;27;61903;-72
2023/01/26 02:10:37;;;;;;;;;62.25;45.00;;;;;;;;5102982;27;61914;-72
2023/01/26 02:13:04;;;;;;;;;57.00;43.67;;;;;;;;5103119;27;61696;-73
2023/01/26 02:15:30;;;;;;;;;64.00;48.67;;;;;;;;5103288;27;61663;-72
2023/01/26 02:18:00;;;;;;;;;55.33;41.00;;;;;;;;5103705;27;61684;-72
2023/01/26 02:20:31;;;;;;;;;44.75;30.75;;;;;;;;5102570;27;61822;-72
2023/01/26 02:23:04;;;;;;;;;50.67;38.33;;;;;;;;5103126;27;61839;-72
2023/01/26 02:25:35;;;;;;;;;58.33;44.33;;;;;;;;5103414;27;61908;-72
2023/01/26 02:28:00;;;;;;;;;36.50;30.50;;;;;;;;5101829;27;62035;-72
2023/01/26 02:30:27;;;;;;;;;60.00;44.00;;;;;;;;5102661;27;61890;-72
2023/01/26 02:32:52;;;;;;;;;60.33;39.33;;;;;;;;5103102;27;61850;-72
2023/01/26 02:35:17;;;;;;;;;53.67;43.33;;;;;;;;5102426;27;62018;-72
2023/01/26 02:37:43;;;;;;;;;59.50;42.00;;;;;;;;5102537;27;61966;-73
2023/01/26 02:40:24;;;;;;;;;57.33;38.67;;;;;;;;5100451;27;63537;-72
2023/01/26 02:42:53;;;;;;;;;56.25;41.25;;;;;;;;5103125;27;62350;-72
2023/01/26 02:45:19;;;;;;;;;51.50;34.50;;;;;;;;5102906;27;61799;-72
2023/01/26 02:47:44;;;;;;;;;49.00;38.67;;;;;;;;5103299;27;61895;-72
2023/01/26 02:50:10;;;;;;;;;53.33;38.67;;;;;;;;5101762;27;62589;-72
2023/01/26 02:52:37;;;;;;;;;71.33;44.33;;;;;;;;5102807;27;61818;-72
2023/01/26 02:57:47;;;;;;;;;48.67;40.67;;;;;;;;5103632;27;61814;-72
2023/01/26 03:00:14;;;;;;;;;48.67;38.33;;;;;;;;5105797;27;61779;-72
2023/01/26 03:02:40;;;;;;;;;66.33;40.67;;;;;;;;5106604;27;61934;-72
2023/01/26 03:05:05;;;;;;;;;48.25;36.75;;;;;;;;5106008;27;61944;-73
2023/01/26 03:07:31;;;;;;;;;53.75;31.25;;;;;;;;5106027;27;61919;-73
2023/01/26 03:09:57;;;;;;;;;51.33;35.67;;;;;;;;5105095;27;62744;-72
2023/01/26 03:12:23;;;;;;;;;56.25;41.00;;;;;;;;5105796;27;62036;-72
2023/01/26 03:15:33;;;;;;;;;59.33;36.00;;;;;;;;5105055;27;61751;-72
2023/01/26 03:17:33;;;;;;;;;55.75;41.25;;;;;;;;5106187;27;61761;-72
2023/01/26 03:28:12;;;;;;;;;24.75;11.75;;;;;;;;5106262;27;61799;-72
2023/01/26 03:30:38;;;;;;;;;43.75;31.50;;;;;;;;5105596;27;61807;-72
2023/01/26 03:33:03;;;;;;;;;49.00;40.75;;;;;;;;5105441;27;61881;-72
2023/01/26 03:35:28;;;;;;;;;53.75;39.50;;;;;;;;5105631;27;62111;-72
2023/01/26 03:37:54;;;;;;;;;46.25;36.25;;;;;;;;5105317;27;62103;-73
2023/01/26 03:56:49;;;;;;;;;44.50;29.50;;;;;;;;5105522;27;61850;-73
2023/01/26 03:59:15;;;;;;;;;40.75;30.00;;;;;;;;5106085;27;61749;-72
2023/01/26 04:09:56;;;;;;;;;49.75;36.75;;;;;;;;5103558;27;61792;-72
2023/01/26 04:12:22;;;;;;;;;38.25;26.50;;;;;;;;5104455;27;61691;-72
2023/01/26 04:22:59;;;;;;;;;34.25;26.75;;;;;;;;5104703;27;62083;-73
2023/01/26 04:25:24;;;;;;;;;37.50;27.00;;;;;;;;5104914;27;62029;-72
2023/01/26 04:27:49;;;;;;;;;31.75;27.25;;;;;;;;5104897;27;61720;-72
2023/01/26 04:30:15;;;;;;;;;48.50;31.25;;;;;;;;5104999;27;61838;-73
2023/01/26 04:32:42;;;;;;;;;42.75;29.25;;;;;;;;5104116;27;61744;-72
2023/01/26 04:35:08;;;;;;;;;46.25;33.00;;;;;;;;5103799;27;61884;-73
2023/01/26 04:37:33;;;;;;;;;46.75;32.00;;;;;;;;5104150;27;61890;-73
2023/01/26 04:39:59;;;;;;;;;35.00;28.00;;;;;;;;5104421;27;61701;-73
2023/01/26 04:42:24;;;;;;;;;37.00;33.00;;;;;;;;5104525;27;62039;-72
2023/01/26 04:44:53;;;;;;;;;45.25;30.00;;;;;;;;5103028;27;61766;-73
2023/01/26 04:47:18;;;;;;;;;32.25;27.00;;;;;;;;5103657;27;61864;-72
2023/01/26 04:49:44;;;;;;;;;48.00;33.75;;;;;;;;5103157;27;61811;-73
2023/01/26 04:52:09;;;;;;;;;45.25;31.25;;;;;;;;5104182;27;61876;-72
2023/01/26 04:54:35;;;;;;;;;37.75;30.75;;;;;;;;5102878;27;61743;-72
2023/01/26 04:57:00;;;;;;;;;47.75;34.00;;;;;;;;5104660;27;61917;-72
2023/01/26 04:59:25;;;;;;;;;38.25;25.50;;;;;;;;5104075;27;61846;-72
2023/01/26 05:01:50;;;;;;;;;38.50;26.75;;;;;;;;5102405;27;63700;-72
2023/01/26 05:04:16;;;;;;;;;49.00;37.25;;;;;;;;5104429;27;62027;-73
2023/01/26 05:06:41;;;;;;;;;47.75;37.75;;;;;;;;5103126;27;62364;-72
2023/01/26 05:09:07;;;;;;;;;43.75;32.50;;;;;;;;5102743;27;61882;-72
2023/01/26 05:11:32;;;;;;;;;44.00;33.00;;;;;;;;5103456;27;62016;-72
2023/01/26 05:13:57;;;;;;;;;39.00;29.75;;;;;;;;5103882;27;61718;-73
2023/01/26 05:16:23;;;;;;;;;37.25;31.75;;;;;;;;5102899;27;62016;-73
2023/01/26 05:18:48;;;;;;;;;45.50;28.75;;;;;;;;5104155;27;61700;-73
2023/01/26 05:21:13;;;;;;;;;44.50;31.00;;;;;;;;5103475;27;61801;-73
2023/01/26 05:23:39;;;;;;;;;46.33;35.33;;;;;;;;5103850;27;61926;-72
2023/01/26 05:26:04;;;;;;;;;47.33;39.67;;;;;;;;5102957;27;61795;-72
2023/01/26 05:28:31;;;;;;;;;42.67;36.67;;;;;;;;5102280;27;61710;-72
2023/01/26 05:30:56;;;;;;;;;37.67;32.67;;;;;;;;5103631;27;61644;-72
2023/01/26 05:33:21;;;;;;;;;64.00;38.25;;;;;;;;5102770;27;61744;-73
2023/01/26 05:35:48;;;;;;;;;40.50;34.75;;;;;;;;5103952;27;62039;-72
2023/01/26 05:38:13;;;;;;;;;48.75;34.75;;;;;;;;5102269;27;61699;-72
2023/01/26 05:40:38;;;;;;;;;50.25;30.00;;;;;;;;5101949;27;61756;-72
2023/01/26 05:43:03;;;;;;;;;46.50;40.50;;;;;;;;5103455;27;61815;-72
2023/01/26 05:45:29;;;;;;;;;56.25;41.25;;;;;;;;5103805;27;61878;-72
2023/01/26 05:47:54;;;;;;;;;48.50;34.00;;;;;;;;5103837;27;62160;-72
2023/01/26 05:50:19;;;;;;;;;53.25;38.50;;;;;;;;5102879;27;62733;-73
2023/01/26 05:52:45;;;;;;;;;50.00;38.25;;;;;;;;5103465;27;61930;-72
2023/01/26 05:55:11;;;;;;;;;53.50;40.00;;;;;;;;5102055;27;61692;-72
2023/01/26 05:57:36;;;;;;;;;47.00;32.50;;;;;;;;5102864;27;61614;-72
2023/01/26 06:00:03;;;;;;;;;50.50;37.00;;;;;;;;5102854;27;61737;-72
2023/01/26 06:02:28;;;;;;;;;48.00;32.33;;;;;;;;5103756;27;62096;-73
2023/01/26 06:04:53;;;;;;;;;48.75;36.25;;;;;;;;5103461;27;61833;-72
2023/01/26 06:07:19;;;;;;;;;49.50;32.25;;;;;;;;5101914;27;62127;-72
2023/01/26 06:09:44;;;;;;;;;63.00;45.33;;;;;;;;5101786;27;62358;-73
2023/01/26 06:12:14;;;;;;;;;63.00;46.00;;;;;;;;5102752;27;61742;-72
2023/01/26 06:14:39;;;;;;;;;50.67;39.67;;;;;;;;5103377;27;61930;-72
2023/01/26 06:17:04;;;;;;;;;57.33;43.67;;;;;;;;5101652;27;61869;-72
2023/01/26 06:19:30;;;;;;;;;72.00;46.67;;;;;;;;5102661;27;61935;-72
2023/01/26 06:21:55;;;;;;;;;60.75;43.50;;;;;;;;5101632;27;62095;-73
2023/01/26 06:24:22;;;;;;;;;54.25;42.50;;;;;;;;5102553;27;61917;-73
2023/01/26 06:26:48;;;;;;;;;58.75;44.50;;;;;;;;5102832;27;61860;-75
2023/01/26 06:29:13;;;;;;;;;43.50;33.75;;;;;;;;5100967;27;63330;-75
2023/01/26 06:31:38;;;;;;;;;49.25;36.75;;;;;;;;5103044;27;61940;-72
2023/01/26 06:34:04;;;;;;;;;49.75;35.25;;;;;;;;5102051;27;61664;-73
2023/01/26 06:36:29;;;;;;;;;51.00;37.00;;;;;;;;5103028;27;61717;-73
2023/01/26 06:38:55;;;;;;;;;49.33;34.00;;;;;;;;5099569;27;63233;-73
2023/01/26 06:41:20;;;;;;;;;33.75;31.50;;;;;;;;5102492;27;61895;-74
2023/01/26 06:43:46;;;;;;;;;45.25;36.50;;;;;;;;5103117;27;61834;-72
2023/01/26 06:46:12;;;;;;;;;43.00;34.25;;;;;;;;5103026;27;62072;-74
2023/01/26 06:48:37;;;;;;;;;49.25;37.00;;;;;;;;5100846;27;64433;-74
2023/01/26 06:51:15;;;;;;;;;50.75;39.50;;;;;;;;5102268;27;61751;-75
2023/01/26 06:53:47;;;;;;;;;38.75;29.50;;;;;;;;5102540;27;61997;-74
2023/01/26 06:56:12;;;;;;;;;49.75;34.75;;;;;;;;5102169;27;61717;-75
2023/01/26 06:58:37;;;;;;;;;48.75;30.75;;;;;;;;5101728;27;61939;-71
2023/01/26 07:01:03;;;;;;;;;45.75;36.25;;;;;;;;5100924;27;61754;-71
2023/01/26 07:03:28;;;;;;;;;59.33;43.33;;;;;;;;5102879;27;61925;-72
2023/01/26 07:05:54;;;;;;;;;51.00;37.75;;;;;;;;5102696;27;61897;-73
2023/01/26 07:08:19;;;;;;;;;52.75;37.75;;;;;;;;5101442;27;62065;-71
2023/01/26 07:10:44;;;;;;;;;50.00;39.50;;;;;;;;5102078;27;61705;-72
2023/01/26 07:13:09;;;;;;;;;42.75;36.50;;;;;;;;5102350;27;61779;-71
2023/01/26 07:15:35;;;;;;;;;46.00;38.00;;;;;;;;5101495;27;61927;-71
2023/01/26 07:18:00;;;;;;;;;45.25;35.75;;;;;;;;5101476;27;62591;-71
2023/01/26 07:20:26;;;;;;;;;46.25;28.75;;;;;;;;5100903;27;61909;-72
2023/01/26 07:22:55;;;;;;;;;47.33;41.00;;;;;;;;5102121;27;61881;-75
2023/01/26 07:25:21;;;;;;;;;53.50;38.00;;;;;;;;5101829;27;61791;-75
2023/01/26 07:27:48;;;;;;;;;46.67;41.00;;;;;;;;5101860;27;62608;-75
2023/01/26 07:30:13;;;;;;;;;32.75;29.00;;;;;;;;5100479;27;61853;-75
2023/01/26 07:32:39;;;;;;;;;50.00;39.33;;;;;;;;5100998;27;61928;-73
2023/01/26 07:35:04;;;;;;;;;42.75;28.00;;;;;;;;5101717;27;61735;-73
2023/01/26 07:37:30;;;;;;;;;49.75;40.00;;;;;;;;5100582;27;62784;-73
2023/01/26 07:39:55;;;;;;;;;49.25;32.25;;;;;;;;5100526;27;62143;-73
2023/01/26 07:42:24;;;;;;;;;45.50;31.75;;;;;;;;5100018;27;62544;-73
2023/01/26 07:44:49;;;;;;;;;48.00;36.75;;;;;;;;5103351;27;61905;-71
2023/01/26 07:47:14;;;;;;;;;39.00;31.25;;;;;;;;5102954;27;63538;-72
2023/01/26 07:49:40;;;;;;;;;50.50;37.00;;;;;;;;5103941;27;61754;-72
2023/01/26 07:52:07;;;;;;;;;50.75;38.00;;;;;;;;5105197;27;61912;-72
2023/01/26 07:54:32;;;;;;;;;54.75;34.50;;;;;;;;5102924;27;61750;-73
2023/01/26 07:56:58;;;;;;;;;55.50;38.00;;;;;;;;5104140;27;61954;-72
2023/01/26 07:59:23;;;;;;;;;46.25;32.25;;;;;;;;5105200;27;61738;-71
2023/01/26 08:01:49;;;;;;;;;44.00;34.67;;;;;;;;5104106;27;61825;-72
2023/01/26 08:04:15;;;;;;;;;50.75;33.75;;;;;;;;5105101;27;61790;-71
2023/01/26 08:06:40;;;;;;;;;52.50;33.50;;;;;;;;5104454;27;62674;-72
2023/01/26 08:09:05;;;;;;;;;59.00;40.75;;;;;;;;5103426;27;61907;-72
2023/01/26 08:11:31;;;;;;;;;45.75;37.25;;;;;;;;5104930;27;62270;-72
2023/01/26 08:13:56;;;;;;;;;40.25;36.50;;;;;;;;5105623;27;61932;-71
2023/01/26 08:16:21;;;;;;;;;51.00;40.00;;;;;;;;5103062;27;63522;-72
2023/01/26 08:18:47;;;;;;;;;70.50;42.00;;;;;;;;5104915;27;61698;-72
2023/01/26 08:21:13;;;;;;;;;64.75;45.25;;;;;;;;5104762;27;61723;-71
2023/01/26 08:23:38;;;;;;;;;64.00;44.67;;;;;;;;5104689;27;61880;-72
2023/01/26 08:26:05;;;;;;;;;61.25;37.00;;;;;;;;5104544;27;61919;-72
2023/01/26 08:28:30;;;;;;;;;49.75;38.75;;;;;;;;5105101;27;61740;-72
2023/01/26 08:30:56;;;;;;;;;55.25;38.75;;;;;;;;5103524;27;61856;-72
2023/01/26 08:33:22;;;;;;;;;53.50;35.75;;;;;;;;5104807;27;62120;-72
2023/01/26 08:35:47;;;;;;;;;33.25;26.00;;;;;;;;5104372;27;61861;-72
2023/01/26 08:38:13;;;;;;;;;62.00;42.25;;;;;;;;5103333;27;61852;-72
2023/01/26 08:40:38;;;;;;;;;45.00;40.00;;;;;;;;5104447;27;62145;-72
2023/01/26 08:43:04;;;;;;;;;57.50;36.50;;;;;;;;5104976;27;61766;-72
2023/01/26 08:45:29;;;;;;;;;54.75;39.50;;;;;;;;5103789;27;61774;-72
2023/01/26 08:47:54;;;;;;;;;51.25;34.25;;;;;;;;5104437;27;61851;-71
2023/01/26 08:50:20;;;;;;;;;49.75;35.75;;;;;;;;5104233;27;61816;-72
2023/01/26 08:52:45;;;;;;;;;53.00;39.75;;;;;;;;5104483;27;61772;-71
2023/01/26 08:55:11;;;;;;;;;47.50;40.50;;;;;;;;5102825;27;62540;-72
2023/01/26 08:57:36;;;;;;;;;54.00;42.25;;;;;;;;5104138;27;61967;-71
2023/01/26 09:00:01;;;;;;;;;54.00;37.25;;;;;;;;5103028;27;61801;-71
2023/01/26 09:02:27;;;;;;;;;46.25;36.00;;;;;;;;5104372;27;62053;-71
2023/01/26 09:04:52;;;;;;;;;56.67;43.33;;;;;;;;5104038;27;61773;-72
2023/01/26 09:07:18;;;;;;;;;47.25;40.25;;;;;;;;5103605;27;61818;-71
2023/01/26 09:09:43;;;;;;;;;63.00;38.75;;;;;;;;5103869;27;61721;-72
2023/01/26 09:12:09;;;;;;;;;52.25;35.25;;;;;;;;5104060;27;62171;-71
2023/01/26 09:14:34;;;;;;;;;47.00;32.00;;;;;;;;5103607;27;61715;-72
2023/01/26 09:16:59;;;;;;;;;36.25;27.50;;;;;;;;5102705;27;61765;-72
2023/01/26 09:19:24;;;;;;;;;44.50;31.00;;;;;;;;5104153;27;61689;-72
2023/01/26 09:21:53;;;;;;;;;41.50;32.75;;;;;;;;5103937;27;61723;-71
2023/01/26 09:24:19;;;;;;;;;38.50;32.00;;;;;;;;5103173;27;61764;-71
2023/01/26 09:26:44;;;;;;;;;47.50;36.75;;;;;;;;5102625;27;61806;-72
2023/01/26 09:29:09;;;;;;;;;50.75;38.50;;;;;;;;5104028;27;62047;-72
2023/01/26 09:31:35;;;;;;;;;40.50;37.75;;;;;;;;5102374;27;62254;-71
2023/01/26 09:34:00;;;;;;;;;56.75;37.25;;;;;;;;5103363;27;62745;-71
2023/01/26 09:36:25;;;;;;;;;59.50;38.50;;;;;;;;5101954;27;61761;-72
2023/01/26 09:38:51;;;;;;;;;57.25;32.00;;;;;;;;5102777;27;61755;-72
2023/01/26 09:41:35;;;;;;;;;44.50;33.00;;;;;;;;5104304;27;61953;-72
2023/01/26 09:44:05;;;;;;;;;36.25;27.25;;;;;;;;5101840;27;64567;-71
2023/01/26 09:46:55;;;;;;;;;50.25;31.75;;;;;;;;5103761;27;61848;-72
2023/01/26 09:49:25;;;;;;;;;54.75;41.00;;;;;;;;5103169;27;62034;-72
2023/01/26 09:52:01;;;;;;;;;44.50;35.75;;;;;;;;5103973;27;61870;-72
2023/01/26 09:54:32;;;;;;;;;49.75;35.50;;;;;;;;5102708;27;62755;-71
2023/01/26 09:56:59;;;;;;;;;48.50;36.00;;;;;;;;5103372;27;61870;-72
2023/01/26 09:59:37;;;;;;;;;48.50;33.25;;;;;;;;5103207;27;61684;-71
2023/01/26 10:02:16;;;;;;;;;57.75;39.00;;;;;;;;5103647;27;61835;-72
2023/01/26 10:04:44;;;;;;;;;38.75;29.50;;;;;;;;5100886;27;63830;-72
2023/01/26 10:07:11;;;;;;;;;42.25;34.00;;;;;;;;5102262;27;61767;-72
2023/01/26 10:09:37;;;;;;;;;33.75;26.25;;;;;;;;5102231;27;61870;-72
2023/01/26 10:12:05;;;;;;;;;52.25;35.75;;;;;;;;5101918;27;61798;-71
2023/01/26 10:14:38;;;;;;;;;31.50;27.25;;;;;;;;5102487;27;61809;-72
2023/01/26 10:17:05;;;;;;;;;47.25;30.00;;;;;;;;5103279;27;61888;-72
2023/01/26 10:19:33;;;;;;;;;45.25;33.50;;;;;;;;5103094;27;61835;-72
2023/01/26 10:22:03;;;;;;;;;51.25;38.50;;;;;;;;5102135;27;61715;-72
2023/01/26 10:24:31;;;;;;;;;50.75;33.00;;;;;;;;5101932;27;62893;-72
2023/01/26 10:26:57;;;;;;;;;40.25;30.50;;;;;;;;5103374;27;62084;-72
2023/01/26 10:29:22;;;;;;;;;49.25;32.00;;;;;;;;5101855;27;61731;-72
2023/01/26 10:31:47;;;;;;;;;37.75;25.50;;;;;;;;5103323;27;62096;-72
2023/01/26 10:34:15;;;;;;;;;35.25;31.50;;;;;;;;5102035;27;62772;-72
2023/01/26 10:36:41;;;;;;;;;45.50;29.50;;;;;;;;5101426;27;61778;-72
2023/01/26 10:39:07;;;;;;;;;38.50;29.00;;;;;;;;5101410;27;61899;-72
2023/01/26 10:41:33;;;;;;;;;36.50;28.00;;;;;;;;5103160;27;62044;-72
2023/01/26 10:44:18;;;;;;;;;37.25;30.75;;;;;;;;5102602;27;61762;-72
2023/01/26 10:46:44;;;;;;;;;47.00;37.75;;;;;;;;5102169;27;62008;-72
2023/01/26 10:49:10;;;;;;;;;37.50;28.75;;;;;;;;5101040;27;61773;-72
2023/01/26 10:51:40;;;;;;;;;30.50;23.50;;;;;;;;5103199;27;61895;-72
2023/01/26 10:54:14;;;;;;;;;39.50;33.00;;;;;;;;5102125;27;62815;-72
2023/01/26 10:56:43;;;;;;;;;38.75;26.25;;;;;;;;5102592;27;61727;-72
2023/01/26 10:59:09;;;;;;;;;36.25;29.75;;;;;;;;5102869;27;61909;-72
2023/01/26 11:01:50;;;;;;;;;39.25;36.75;;;;;;;;5102901;27;62365;-72
2023/01/26 11:04:15;;;;;;;;;40.00;33.50;;;;;;;;5101544;27;61838;-72
2023/01/26 11:06:40;;;;;;;;;43.75;30.00;;;;;;;;5102362;27;61930;-72
2023/01/26 11:09:10;;;;;;;;;35.50;28.75;;;;;;;;5101888;27;62208;-72
2023/01/26 11:11:36;;;;;;;;;45.75;34.75;;;;;;;;5102502;27;62059;-72
2023/01/26 11:14:09;;;;;;;;;47.00;35.00;;;;;;;;5101832;27;62006;-73
2023/01/26 11:16:35;;;;;;;;;55.25;36.75;;;;;;;;5100868;27;61860;-72
2023/01/26 11:19:01;;;;;;;;;48.50;36.50;;;;;;;;5103409;27;61850;-72
2023/01/26 11:21:30;;;;;;;;;41.50;34.25;;;;;;;;5106643;27;61855;-72
2023/01/26 11:24:03;;;;;;;;;52.75;37.75;;;;;;;;5104915;27;61723;-72
2023/01/26 11:26:38;;;;;;;;;45.25;32.25;;;;;;;;5105924;27;61881;-72
2023/01/26 11:29:22;;;;;;;;;34.50;31.50;;;;;;;;5104865;27;61765;-72
2023/01/26 11:32:06;;;;;;;;;43.75;34.75;;;;;;;;5104464;27;62121;-72
2023/01/26 11:34:34;;;;;;;;;46.75;35.50;;;;;;;;5103854;27;63415;-72
2023/01/26 11:37:05;;;;;;;;;49.00;34.00;;;;;;;;5105548;27;61957;-72
2023/01/26 11:39:31;;;;;;;;;36.25;29.50;;;;;;;;5103506;27;61889;-72
2023/01/26 11:42:14;;;;;;;;;38.00;26.50;;;;;;;;5105837;27;62079;-73
2023/01/26 11:44:49;;;;;;;;;43.75;27.00;;;;;;;;5105466;27;62654;-72
2023/01/26 11:47:40;;;;;;;;;37.75;26.75;;;;;;;;5105201;27;61849;-72
2023/01/26 11:50:06;;;;;;;;;42.25;27.00;;;;;;;;5104490;27;62232;-72
2023/01/26 11:52:49;;;;;;;;;33.00;26.50;;;;;;;;5106203;27;61722;-72
2023/01/26 11:55:30;;;;;;;;;33.25;25.75;;;;;;;;5104638;27;61920;-72
2023/01/26 11:58:05;;;;;;;;;34.75;30.00;;;;;;;;5105460;27;61787;-72
2023/01/26 12:00:41;;;;;;;;;29.75;19.50;;;;;;;;5105285;27;61881;-72
2023/01/26 12:03:27;;;;;;;;;34.25;25.75;;;;;;;;5105624;27;61970;-72
2023/01/26 12:05:54;;;;;;;;;28.50;23.50;;;;;;;;5104186;27;61944;-73
2023/01/26 12:08:25;;;;;;;;;27.25;18.00;;;;;;;;5105093;27;61818;-72
2023/01/26 12:11:21;;;;;;;;;22.00;17.00;;;;;;;;5104878;27;61913;-72
2023/01/26 12:13:51;;;;;;;;;19.00;18.25;;;;;;;;5105282;27;61803;-72
2023/01/26 12:16:22;;;;;;;;;13.75;10.25;;;;;;;;5085371;27;63446;-72
2023/01/26 12:18:56;;;;;;;;;29.25;21.25;;;;;;;;5104959;27;61972;-73
2023/01/26 12:21:21;;;;;;;;;25.25;19.75;;;;;;;;5105308;27;62102;-72
2023/01/26 12:23:50;;;;;;;;;16.50;15.00;;;;;;;;5086167;27;61731;-73
2023/01/26 12:26:23;;;;;;;;;20.50;14.50;;;;;;;;5085752;27;63817;-72
2023/01/26 12:29:08;;;;;;;;;21.25;17.75;;;;;;;;5085648;27;61967;-72
2023/01/26 12:31:48;;;;;;;;;23.75;18.00;;;;;;;;5104179;27;61756;-72
2023/01/26 12:34:13;;;;;;;;;18.75;13.50;;;;;;;;5105514;27;61713;-72
2023/01/26 12:36:46;;;;;;;;;22.75;14.50;;;;;;;;5104263;27;61794;-72
2023/01/26 12:39:11;;;;;;;;;18.00;14.25;;;;;;;;5084676;27;61883;-72
2023/01/26 12:41:42;;;;;;;;;18.75;17.75;;;;;;;;5104882;27;62033;-72
2023/01/26 12:44:17;;;;;;;;;18.50;15.25;;;;;;;;5086181;27;61775;-73
2023/01/26 12:46:46;;;;;;;;;13.25;11.25;;;;;;;;5104257;27;62816;-72
2023/01/26 12:49:23;;;;;;;;;19.25;16.75;;;;;;;;5104633;27;62070;-73
2023/01/26 12:52:09;;;;;;;;;18.00;14.25;;;;;;;;5104830;27;61808;-72
2023/01/26 12:54:37;;;;;;;;;17.50;13.75;;;;;;;;5103556;27;62179;-72
2023/01/26 12:57:05;;;;;;;;;21.50;14.25;;;;;;;;5103678;27;61790;-72
2023/01/26 12:59:33;;;;;;;;;13.25;13.25;;;;;;;;5085809;27;61756;-72
2023/01/26 13:01:59;;;;;;;;;23.50;18.00;;;;;;;;5104522;27;61919;-73
2023/01/26 13:04:24;;;;;;;;;16.75;12.50;;;;;;;;5104975;27;61794;-72
2023/01/26 13:07:01;;;;;;;;;18.00;9.75;;;;;;;;5104214;27;62276;-72
2023/01/26 13:09:26;;;;;;;;;14.25;13.50;;;;;;;;5103866;27;61942;-72
2023/01/26 13:11:53;;;;;;;;;13.75;11.25;;;;;;;;5104195;27;61863;-72
2023/01/26 13:14:37;;;;;;;;;12.25;9.50;;;;;;;;5104275;27;61930;-73
2023/01/26 13:17:14;;;;;;;;;13.50;10.00;;;;;;;;5103748;27;61950;-72
2023/01/26 13:19:42;;;;;;;;;18.25;15.25;;;;;;;;5104334;27;61669;-72
2023/01/26 13:22:22;;;;;;;;;18.75;14.50;;;;;;;;5102705;27;62033;-73
2023/01/26 13:25:06;;;;;;;;;17.50;10.00;;;;;;;;5102630;27;62132;-72
2023/01/26 13:27:32;;;;;;;;;17.00;16.25;;;;;;;;5101872;27;63415;-72
2023/01/26 13:29:57;;;;;;;;;25.75;23.50;;;;;;;;5104165;27;61977;-72
2023/01/26 13:32:22;;;;;;;;;23.00;18.25;;;;;;;;5103955;27;61786;-72
2023/01/26 13:35:00;;;;;;;;;16.25;11.25;;;;;;;;5102827;27;61687;-72
2023/01/26 13:37:31;;;;;;;;;11.50;10.00;;;;;;;;5101670;27;63449;-72
2023/01/26 13:40:03;;;;;;;;;15.00;14.00;;;;;;;;5102570;27;62127;-72
2023/01/26 13:42:36;;;;;;;;;18.50;13.75;;;;;;;;5102808;27;61922;-73
2023/01/26 13:45:05;;;;;;;;;12.75;11.75;;;;;;;;5103749;27;61901;-73
2023/01/26 13:47:37;;;;;;;;;17.75;16.50;;;;;;;;5100779;27;63451;-73
2023/01/26 13:50:20;;;;;;;;;14.75;11.00;;;;;;;;5100487;27;62014;-73
2023/01/26 13:52:45;;;;;;;;;18.75;17.75;;;;;;;;5099743;27;61942;-73
2023/01/26 13:55:19;;;;;;;;;29.50;21.75;;;;;;;;5101407;27;62244;-73
2023/01/26 13:57:48;;;;;;;;;23.00;20.25;;;;;;;;5099445;27;64609;-73
2023/01/26 14:00:13;;;;;;;;;25.00;21.25;;;;;;;;5098498;27;61885;-73
2023/01/26 14:02:39;;;;;;;;;20.75;18.00;;;;;;;;5101815;27;61809;-73
2023/01/26 14:05:04;;;;;;;;;27.50;15.50;;;;;;;;5101981;27;62134;-73
2023/01/26 14:07:38;;;;;;;;;26.25;23.50;;;;;;;;5100774;27;62009;-73
2023/01/26 14:10:05;;;;;;;;;23.00;17.00;;;;;;;;5101351;27;61839;-74
2023/01/26 14:12:40;;;;;;;;;23.25;18.50;;;;;;;;5095657;27;61936;-73
2023/01/26 14:15:06;;;;;;;;;30.25;27.75;;;;;;;;5076225;28;62134;-73
2023/01/26 14:17:36;;;;;;;;;25.00;22.75;;;;;;;;5093768;27;62733;-73
2023/01/26 14:20:15;;;;;;;;;24.50;20.50;;;;;;;;5101713;27;61830;-74
2023/01/26 14:22:41;;;;;;;;;22.00;14.50;;;;;;;;5085625;27;62011;-73
2023/01/26 14:25:08;;;;;;;;;23.75;18.50;;;;;;;;5101990;27;62076;-73
2023/01/26 14:27:38;;;;;;;;;16.50;16.25;;;;;;;;5100133;27;63585;-73
2023/01/26 14:30:19;;;;;;;;;23.50;23.00;;;;;;;;5102097;27;61972;-73
2023/01/26 14:32:44;;;;;;;;;23.50;16.25;;;;;;;;5086541;27;61886;-73
2023/01/26 14:35:22;;;;;;;;;13.25;10.75;;;;;;;;5102831;27;62092;-73
2023/01/26 14:37:47;;;;;;;;;17.50;14.25;;;;;;;;5099908;27;62034;-74
2023/01/26 14:40:15;;;;;;;;;4.25;0.75;;;;;;;;5101743;27;62022;-74
2023/01/26 14:42:41;;;;;;;;;23.50;18.75;;;;;;;;5102560;27;61932;-73
2023/01/26 14:45:11;;;;;;;;;21.25;18.25;;;;;;;;5102787;27;61890;-73
2023/01/26 14:47:36;;;;;;;;;7.00;5.00;;;;;;;;5099850;27;63908;-74
2023/01/26 14:50:01;;;;;;;;;11.50;9.75;;;;;;;;5101134;27;61811;-73
2023/01/26 14:52:37;;;;;;;;;23.50;17.00;;;;;;;;5100546;27;61757;-73
2023/01/26 14:55:22;;;;;;;;;20.50;13.50;;;;;;;;5104848;27;61766;-73
2023/01/26 14:57:47;;;;;;;;;18.50;15.25;;;;;;;;5103432;27;63598;-73
2023/01/26 15:00:22;;;;;;;;;22.50;18.50;;;;;;;;5106175;27;61920;-73
2023/01/26 15:02:48;;;;;;;;;11.00;11.00;;;;;;;;5105841;27;61738;-73
2023/01/26 15:05:17;;;;;;;;;22.75;19.25;;;;;;;;5104796;27;62117;-73